sensor_id;sensor_type;location;lat;lon;timestamp;P1;durP1;ratioP1;P2;durP2;ratioP2
67712;SDS011;67640;55.784;49.138;2023-10-31T00:00:15;7.20;;;2.87;;
67712;SDS011;67640;55.784;49.138;2023-10-31T00:05:20;7.90;;;2.85;;
67712;SDS011;67640;55.784;49.138;2023-10-31T00:10:26;7.10;;;2.92;;
67712;SDS011;67640;55.784;49.138;2023-10-31T00:15:47;6.28;;;2.47;;
67712;SDS011;67640;55.784;49.138;2023-10-31T00:20:52;6.92;;;3.00;;
67712;SDS011;67640;55.784;49.138;2023-10-31T00:25:57;7.08;;;2.75;;
67712;SDS011;67640;55.784;49.138;2023-10-31T00:31:07;6.47;;;2.70;;
67712;SDS011;67640;55.784;49.138;2023-10-31T00:36:25;6.57;;;2.80;;
67712;SDS011;67640;55.784;49.138;2023-10-31T00:41:30;6.42;;;2.67;;
67712;SDS011;67640;55.784;49.138;2023-10-31T00:46:49;6.93;;;2.50;;
67712;SDS011;67640;55.784;49.138;2023-10-31T00:52:08;9.40;;;2.77;;
67712;SDS011;67640;55.784;49.138;2023-10-31T00:57:13;6.37;;;2.60;;
67712;SDS011;67640;55.784;49.138;2023-10-31T01:02:18;8.80;;;3.10;;
67712;SDS011;67640;55.784;49.138;2023-10-31T01:07:23;6.28;;;2.75;;
67712;SDS011;67640;55.784;49.138;2023-10-31T01:12:41;6.28;;;2.75;;
67712;SDS011;67640;55.784;49.138;2023-10-31T01:17:47;7.17;;;2.77;;
67712;SDS011;67640;55.784;49.138;2023-10-31T01:23:06;5.87;;;2.37;;
67712;SDS011;67640;55.784;49.138;2023-10-31T01:28:10;6.67;;;2.80;;
67712;SDS011;67640;55.784;49.138;2023-10-31T01:33:30;7.07;;;2.63;;
67712;SDS011;67640;55.784;49.138;2023-10-31T01:38:54;6.93;;;2.50;;
67712;SDS011;67640;55.784;49.138;2023-10-31T01:43:59;5.85;;;2.60;;
67712;SDS011;67640;55.784;49.138;2023-10-31T01:49:05;7.08;;;2.70;;
67712;SDS011;67640;55.784;49.138;2023-10-31T01:54:24;7.08;;;2.77;;
67712;SDS011;67640;55.784;49.138;2023-10-31T01:59:44;6.75;;;2.27;;
67712;SDS011;67640;55.784;49.138;2023-10-31T02:05:03;6.43;;;2.53;;
67712;SDS011;67640;55.784;49.138;2023-10-31T02:10:08;6.60;;;2.60;;
67712;SDS011;67640;55.784;49.138;2023-10-31T02:15:13;6.40;;;2.42;;
67712;SDS011;67640;55.784;49.138;2023-10-31T02:20:18;5.85;;;2.30;;
67712;SDS011;67640;55.784;49.138;2023-10-31T02:25:37;8.53;;;2.70;;
67712;SDS011;67640;55.784;49.138;2023-10-31T02:30:57;10.83;;;3.00;;
67712;SDS011;67640;55.784;49.138;2023-10-31T02:36:02;6.78;;;2.45;;
67712;SDS011;67640;55.784;49.138;2023-10-31T02:41:07;7.12;;;2.67;;
67712;SDS011;67640;55.784;49.138;2023-10-31T02:46:12;6.40;;;2.30;;
67712;SDS011;67640;55.784;49.138;2023-10-31T02:51:41;7.85;;;2.83;;
67712;SDS011;67640;55.784;49.138;2023-10-31T02:56:46;7.08;;;3.05;;
67712;SDS011;67640;55.784;49.138;2023-10-31T03:02:08;6.57;;;2.60;;
67712;SDS011;67640;55.784;49.138;2023-10-31T03:07:27;6.67;;;2.62;;
67712;SDS011;67640;55.784;49.138;2023-10-31T03:12:46;7.10;;;2.80;;
67712;SDS011;67640;55.784;49.138;2023-10-31T03:18:05;7.53;;;3.30;;
67712;SDS011;67640;55.784;49.138;2023-10-31T03:23:10;7.97;;;2.90;;
67712;SDS011;67640;55.784;49.138;2023-10-31T03:33:55;8.63;;;2.98;;
67712;SDS011;67640;55.784;49.138;2023-10-31T03:39:00;10.70;;;3.22;;
67712;SDS011;67640;55.784;49.138;2023-10-31T03:44:19;6.27;;;2.70;;
67712;SDS011;67640;55.784;49.138;2023-10-31T03:49:24;7.92;;;2.98;;
67712;SDS011;67640;55.784;49.138;2023-10-31T03:54:46;8.08;;;3.33;;
67712;SDS011;67640;55.784;49.138;2023-10-31T03:59:54;8.40;;;3.10;;
67712;SDS011;67640;55.784;49.138;2023-10-31T04:05:13;11.80;;;3.70;;
67712;SDS011;67640;55.784;49.138;2023-10-31T04:10:32;13.53;;;4.00;;
67712;SDS011;67640;55.784;49.138;2023-10-31T04:15:37;13.08;;;4.20;;
67712;SDS011;67640;55.784;49.138;2023-10-31T04:20:42;13.65;;;3.98;;
67712;SDS011;67640;55.784;49.138;2023-10-31T04:26:00;9.57;;;3.70;;
67712;SDS011;67640;55.784;49.138;2023-10-31T04:31:04;12.53;;;4.78;;
67712;SDS011;67640;55.784;49.138;2023-10-31T04:36:10;10.00;;;4.40;;
67712;SDS011;67640;55.784;49.138;2023-10-31T04:41:30;9.63;;;3.97;;
67712;SDS011;67640;55.784;49.138;2023-10-31T04:46:49;9.50;;;4.08;;
67712;SDS011;67640;55.784;49.138;2023-10-31T04:52:08;12.80;;;4.20;;
67712;SDS011;67640;55.784;49.138;2023-10-31T04:57:13;10.63;;;3.92;;
67712;SDS011;67640;55.784;49.138;2023-10-31T05:02:33;9.43;;;4.03;;
67712;SDS011;67640;55.784;49.138;2023-10-31T05:13:19;12.07;;;4.70;;
67712;SDS011;67640;55.784;49.138;2023-10-31T05:18:24;12.35;;;5.17;;
67712;SDS011;67640;55.784;49.138;2023-10-31T05:23:30;15.13;;;5.10;;
67712;SDS011;67640;55.784;49.138;2023-10-31T05:28:51;11.63;;;4.78;;
67712;SDS011;67640;55.784;49.138;2023-10-31T05:33:55;12.43;;;5.37;;
67712;SDS011;67640;55.784;49.138;2023-10-31T05:39:09;14.50;;;4.95;;
67712;SDS011;67640;55.784;49.138;2023-10-31T05:44:28;13.13;;;5.23;;
67712;SDS011;67640;55.784;49.138;2023-10-31T05:55:08;14.45;;;5.47;;
67712;SDS011;67640;55.784;49.138;2023-10-31T06:00:13;15.07;;;5.47;;
67712;SDS011;67640;55.784;49.138;2023-10-31T06:05:32;14.05;;;5.00;;
67712;SDS011;67640;55.784;49.138;2023-10-31T06:10:51;14.33;;;5.58;;
67712;SDS011;67640;55.784;49.138;2023-10-31T06:16:11;18.03;;;6.40;;
67712;SDS011;67640;55.784;49.138;2023-10-31T06:21:30;27.48;;;10.58;;
67712;SDS011;67640;55.784;49.138;2023-10-31T06:26:35;17.37;;;5.60;;
67712;SDS011;67640;55.784;49.138;2023-10-31T06:31:41;16.40;;;6.00;;
67712;SDS011;67640;55.784;49.138;2023-10-31T06:36:59;19.25;;;5.90;;
67712;SDS011;67640;55.784;49.138;2023-10-31T06:42:04;19.60;;;6.10;;
67712;SDS011;67640;55.784;49.138;2023-10-31T06:47:23;18.02;;;6.83;;
67712;SDS011;67640;55.784;49.138;2023-10-31T06:58:04;13.40;;;4.60;;
67712;SDS011;67640;55.784;49.138;2023-10-31T07:03:09;13.87;;;4.90;;
67712;SDS011;67640;55.784;49.138;2023-10-31T07:08:31;16.73;;;4.97;;
67712;SDS011;67640;55.784;49.138;2023-10-31T07:13:38;13.00;;;4.90;;
67712;SDS011;67640;55.784;49.138;2023-10-31T07:18:44;19.90;;;6.00;;
67712;SDS011;67640;55.784;49.138;2023-10-31T07:24:04;14.57;;;5.33;;
67712;SDS011;67640;55.784;49.138;2023-10-31T07:29:09;20.90;;;6.97;;
67712;SDS011;67640;55.784;49.138;2023-10-31T07:45:34;15.20;;;4.70;;
67712;SDS011;67640;55.784;49.138;2023-10-31T07:50:53;15.30;;;6.00;;
67712;SDS011;67640;55.784;49.138;2023-10-31T08:01:39;16.60;;;6.08;;
67712;SDS011;67640;55.784;49.138;2023-10-31T08:06:45;14.65;;;5.12;;
67712;SDS011;67640;55.784;49.138;2023-10-31T08:11:51;13.87;;;5.47;;
67712;SDS011;67640;55.784;49.138;2023-10-31T08:17:10;14.03;;;5.90;;
67712;SDS011;67640;55.784;49.138;2023-10-31T08:22:14;13.68;;;5.42;;
67712;SDS011;67640;55.784;49.138;2023-10-31T08:27:48;13.10;;;4.87;;
67712;SDS011;67640;55.784;49.138;2023-10-31T08:32:53;17.93;;;9.83;;
67712;SDS011;67640;55.784;49.138;2023-10-31T08:38:00;21.60;;;12.68;;
67712;SDS011;67640;55.784;49.138;2023-10-31T08:43:21;17.40;;;9.80;;
67712;SDS011;67640;55.784;49.138;2023-10-31T08:48:40;13.68;;;7.22;;
67712;SDS011;67640;55.784;49.138;2023-10-31T08:53:59;10.80;;;5.75;;
67712;SDS011;67640;55.784;49.138;2023-10-31T08:59:05;11.03;;;4.97;;
67712;SDS011;67640;55.784;49.138;2023-10-31T09:04:10;10.30;;;4.70;;
67712;SDS011;67640;55.784;49.138;2023-10-31T09:14:49;9.77;;;4.67;;
67712;SDS011;67640;55.784;49.138;2023-10-31T09:19:55;8.43;;;3.87;;
67712;SDS011;67640;55.784;49.138;2023-10-31T09:25:01;8.43;;;4.15;;
67712;SDS011;67640;55.784;49.138;2023-10-31T09:30:21;10.65;;;4.72;;
67712;SDS011;67640;55.784;49.138;2023-10-31T09:35:43;10.00;;;4.25;;
67712;SDS011;67640;55.784;49.138;2023-10-31T09:41:02;9.77;;;4.50;;
67712;SDS011;67640;55.784;49.138;2023-10-31T09:46:07;9.83;;;4.10;;
67712;SDS011;67640;55.784;49.138;2023-10-31T09:51:15;7.33;;;4.20;;
67712;SDS011;67640;55.784;49.138;2023-10-31T09:56:19;6.47;;;3.58;;
67712;SDS011;67640;55.784;49.138;2023-10-31T10:01:39;8.18;;;3.30;;
67712;SDS011;67640;55.784;49.138;2023-10-31T10:12:21;7.60;;;4.03;;
67712;SDS011;67640;55.784;49.138;2023-10-31T10:17:42;8.93;;;4.60;;
67712;SDS011;67640;55.784;49.138;2023-10-31T10:28:28;9.80;;;4.47;;
67712;SDS011;67640;55.784;49.138;2023-10-31T10:33:47;14.50;;;4.62;;
67712;SDS011;67640;55.784;49.138;2023-10-31T10:39:26;17.33;;;4.53;;
67712;SDS011;67640;55.784;49.138;2023-10-31T10:44:33;8.80;;;3.20;;
67712;SDS011;67640;55.784;49.138;2023-10-31T10:49:41;8.90;;;3.23;;
67712;SDS011;67640;55.784;49.138;2023-10-31T11:00:34;10.00;;;3.98;;
67712;SDS011;67640;55.784;49.138;2023-10-31T11:05:54;14.80;;;4.80;;
67712;SDS011;67640;55.784;49.138;2023-10-31T11:11:05;11.70;;;4.33;;
67712;SDS011;67640;55.784;49.138;2023-10-31T11:16:26;9.15;;;3.98;;
67712;SDS011;67640;55.784;49.138;2023-10-31T11:27:25;9.70;;;4.12;;
67712;SDS011;67640;55.784;49.138;2023-10-31T11:32:31;10.70;;;4.33;;
67712;SDS011;67640;55.784;49.138;2023-10-31T11:37:49;10.73;;;4.47;;
67712;SDS011;67640;55.784;49.138;2023-10-31T11:42:57;7.87;;;3.90;;
67712;SDS011;67640;55.784;49.138;2023-10-31T11:48:03;12.20;;;4.20;;
67712;SDS011;67640;55.784;49.138;2023-10-31T11:53:23;9.43;;;4.33;;
67712;SDS011;67640;55.784;49.138;2023-10-31T11:58:42;9.08;;;4.40;;
67712;SDS011;67640;55.784;49.138;2023-10-31T12:04:01;9.40;;;4.20;;
67712;SDS011;67640;55.784;49.138;2023-10-31T12:09:20;11.60;;;4.83;;
67712;SDS011;67640;55.784;49.138;2023-10-31T12:14:25;11.48;;;4.67;;
67712;SDS011;67640;55.784;49.138;2023-10-31T12:19:31;10.23;;;4.57;;
67712;SDS011;67640;55.784;49.138;2023-10-31T12:24:36;10.70;;;5.00;;
67712;SDS011;67640;55.784;49.138;2023-10-31T12:35:21;12.23;;;5.40;;
67712;SDS011;67640;55.784;49.138;2023-10-31T12:40:27;10.95;;;4.83;;
67712;SDS011;67640;55.784;49.138;2023-10-31T12:45:45;11.43;;;4.70;;
67712;SDS011;67640;55.784;49.138;2023-10-31T12:50:55;13.17;;;5.17;;
67712;SDS011;67640;55.784;49.138;2023-10-31T12:55:57;11.60;;;4.95;;
67712;SDS011;67640;55.784;49.138;2023-10-31T13:01:06;11.75;;;5.08;;
67712;SDS011;67640;55.784;49.138;2023-10-31T13:06:22;10.55;;;4.97;;
67712;SDS011;67640;55.784;49.138;2023-10-31T13:17:06;11.40;;;5.50;;
67712;SDS011;67640;55.784;49.138;2023-10-31T13:22:11;13.78;;;4.75;;
67712;SDS011;67640;55.784;49.138;2023-10-31T13:27:16;15.97;;;5.20;;
67712;SDS011;67640;55.784;49.138;2023-10-31T13:32:35;12.45;;;4.78;;
67712;SDS011;67640;55.784;49.138;2023-10-31T13:37:55;12.80;;;5.80;;
67712;SDS011;67640;55.784;49.138;2023-10-31T13:43:27;11.00;;;5.00;;
67712;SDS011;67640;55.784;49.138;2023-10-31T13:48:32;10.90;;;4.92;;
67712;SDS011;67640;55.784;49.138;2023-10-31T13:53:38;9.53;;;3.95;;
67712;SDS011;67640;55.784;49.138;2023-10-31T13:58:57;11.50;;;4.17;;
67712;SDS011;67640;55.784;49.138;2023-10-31T14:04:02;9.05;;;3.80;;
67712;SDS011;67640;55.784;49.138;2023-10-31T14:09:21;10.00;;;3.90;;
67712;SDS011;67640;55.784;49.138;2023-10-31T14:14:26;8.33;;;3.20;;
67712;SDS011;67640;55.784;49.138;2023-10-31T14:19:32;8.00;;;3.00;;
67712;SDS011;67640;55.784;49.138;2023-10-31T14:24:51;7.43;;;3.30;;
67712;SDS011;67640;55.784;49.138;2023-10-31T14:29:56;9.58;;;3.50;;
67712;SDS011;67640;55.784;49.138;2023-10-31T14:35:15;9.95;;;3.30;;
67712;SDS011;67640;55.784;49.138;2023-10-31T14:40:21;9.30;;;4.20;;
67712;SDS011;67640;55.784;49.138;2023-10-31T14:45:28;7.92;;;3.42;;
67712;SDS011;67640;55.784;49.138;2023-10-31T14:50:47;9.53;;;3.53;;
67712;SDS011;67640;55.784;49.138;2023-10-31T14:55:52;9.70;;;3.83;;
67712;SDS011;67640;55.784;49.138;2023-10-31T15:01:02;8.90;;;4.00;;
67712;SDS011;67640;55.784;49.138;2023-10-31T15:06:21;8.40;;;3.90;;
67712;SDS011;67640;55.784;49.138;2023-10-31T15:11:27;10.48;;;3.98;;
67712;SDS011;67640;55.784;49.138;2023-10-31T15:16:46;6.73;;;3.67;;
67712;SDS011;67640;55.784;49.138;2023-10-31T15:21:51;8.78;;;4.10;;
67712;SDS011;67640;55.784;49.138;2023-10-31T15:27:10;8.53;;;3.75;;
67712;SDS011;67640;55.784;49.138;2023-10-31T15:32:16;8.80;;;4.35;;
67712;SDS011;67640;55.784;49.138;2023-10-31T15:37:21;6.83;;;3.62;;
67712;SDS011;67640;55.784;49.138;2023-10-31T15:42:43;7.08;;;3.27;;
67712;SDS011;67640;55.784;49.138;2023-10-31T15:48:02;6.97;;;3.17;;
67712;SDS011;67640;55.784;49.138;2023-10-31T15:53:21;5.78;;;2.83;;
67712;SDS011;67640;55.784;49.138;2023-10-31T15:58:27;7.55;;;3.10;;
67712;SDS011;67640;55.784;49.138;2023-10-31T16:03:32;6.50;;;2.58;;
67712;SDS011;67640;55.784;49.138;2023-10-31T16:08:37;6.33;;;2.70;;
67712;SDS011;67640;55.784;49.138;2023-10-31T16:13:56;6.07;;;2.70;;
67712;SDS011;67640;55.784;49.138;2023-10-31T16:19:15;5.78;;;2.50;;
67712;SDS011;67640;55.784;49.138;2023-10-31T16:24:34;6.87;;;2.40;;
67712;SDS011;67640;55.784;49.138;2023-10-31T16:29:51;6.23;;;2.53;;
67712;SDS011;67640;55.784;49.138;2023-10-31T16:34:57;6.58;;;2.60;;
67712;SDS011;67640;55.784;49.138;2023-10-31T16:40:03;7.37;;;3.12;;
67712;SDS011;67640;55.784;49.138;2023-10-31T16:45:22;7.20;;;3.20;;
67712;SDS011;67640;55.784;49.138;2023-10-31T16:50:41;7.90;;;3.40;;
67712;SDS011;67640;55.784;49.138;2023-10-31T16:56:01;8.97;;;3.00;;
67712;SDS011;67640;55.784;49.138;2023-10-31T17:01:06;6.30;;;2.20;;
67712;SDS011;67640;55.784;49.138;2023-10-31T17:06:12;7.62;;;3.05;;
67712;SDS011;67640;55.784;49.138;2023-10-31T17:11:31;7.33;;;2.87;;
67712;SDS011;67640;55.784;49.138;2023-10-31T17:16:38;8.75;;;3.37;;
67712;SDS011;67640;55.784;49.138;2023-10-31T17:21:57;8.28;;;3.27;;
67712;SDS011;67640;55.784;49.138;2023-10-31T17:27:16;7.17;;;3.13;;
67712;SDS011;67640;55.784;49.138;2023-10-31T17:32:36;6.42;;;2.83;;
67712;SDS011;67640;55.784;49.138;2023-10-31T17:38:19;6.20;;;2.83;;
67712;SDS011;67640;55.784;49.138;2023-10-31T17:55:19;7.33;;;3.40;;
67712;SDS011;67640;55.784;49.138;2023-10-31T18:00:38;9.68;;;3.45;;
67712;SDS011;67640;55.784;49.138;2023-10-31T18:05:57;8.15;;;3.15;;
67712;SDS011;67640;55.784;49.138;2023-10-31T18:11:02;6.53;;;3.20;;
67712;SDS011;67640;55.784;49.138;2023-10-31T18:16:07;7.20;;;3.00;;
67712;SDS011;67640;55.784;49.138;2023-10-31T18:21:27;6.90;;;3.02;;
67712;SDS011;67640;55.784;49.138;2023-10-31T18:32:13;7.95;;;2.90;;
67712;SDS011;67640;55.784;49.138;2023-10-31T18:37:58;8.20;;;3.20;;
67712;SDS011;67640;55.784;49.138;2023-10-31T18:43:25;4.60;;;2.10;;
67712;SDS011;67640;55.784;49.138;2023-10-31T18:48:48;5.10;;;1.93;;
67712;SDS011;67640;55.784;49.138;2023-10-31T18:53:54;4.78;;;1.65;;
67712;SDS011;67640;55.784;49.138;2023-10-31T19:15:12;4.10;;;1.50;;
67712;SDS011;67640;55.784;49.138;2023-10-31T19:20:29;3.57;;;1.30;;
67712;SDS011;67640;55.784;49.138;2023-10-31T19:31:57;4.30;;;1.57;;
67712;SDS011;67640;55.784;49.138;2023-10-31T19:37:21;5.13;;;1.70;;
67712;SDS011;67640;55.784;49.138;2023-10-31T19:42:50;6.80;;;1.37;;
67712;SDS011;67640;55.784;49.138;2023-10-31T19:47:55;4.00;;;1.30;;
67712;SDS011;67640;55.784;49.138;2023-10-31T20:09:07;2.67;;;0.90;;
67712;SDS011;67640;55.784;49.138;2023-10-31T20:14:26;2.45;;;0.90;;
67712;SDS011;67640;55.784;49.138;2023-10-31T20:25:44;2.70;;;0.90;;
67712;SDS011;67640;55.784;49.138;2023-10-31T20:47:27;2.50;;;0.78;;
67712;SDS011;67640;55.784;49.138;2023-10-31T20:52:35;3.43;;;1.10;;
67712;SDS011;67640;55.784;49.138;2023-10-31T21:03:34;2.77;;;1.30;;
67712;SDS011;67640;55.784;49.138;2023-10-31T21:08:39;2.63;;;1.23;;
67712;SDS011;67640;55.784;49.138;2023-10-31T21:13:58;2.92;;;1.30;;
67712;SDS011;67640;55.784;49.138;2023-10-31T21:19:27;6.90;;;1.72;;
67712;SDS011;67640;55.784;49.138;2023-10-31T21:25:17;3.77;;;1.60;;
67712;SDS011;67640;55.784;49.138;2023-10-31T21:30:12;6.45;;;1.90;;
67712;SDS011;67640;55.784;49.138;2023-10-31T21:35:39;4.03;;;1.57;;
67712;SDS011;67640;55.784;49.138;2023-10-31T21:41:00;3.52;;;1.50;;
67712;SDS011;67640;55.784;49.138;2023-10-31T21:46:19;5.20;;;1.90;;
67712;SDS011;67640;55.784;49.138;2023-10-31T21:51:38;5.22;;;2.10;;
67712;SDS011;67640;55.784;49.138;2023-10-31T21:57:01;5.50;;;2.45;;
67712;SDS011;67640;55.784;49.138;2023-10-31T22:02:20;5.73;;;2.30;;
67712;SDS011;67640;55.784;49.138;2023-10-31T22:07:39;6.22;;;2.45;;
67712;SDS011;67640;55.784;49.138;2023-10-31T22:13:19;5.78;;;2.20;;
67712;SDS011;67640;55.784;49.138;2023-10-31T22:18:38;6.17;;;2.33;;
67712;SDS011;67640;55.784;49.138;2023-10-31T22:23:44;6.42;;;2.35;;
67712;SDS011;67640;55.784;49.138;2023-10-31T22:29:02;7.20;;;3.12;;
67712;SDS011;67640;55.784;49.138;2023-10-31T22:34:08;11.37;;;3.00;;
67712;SDS011;67640;55.784;49.138;2023-10-31T22:39:27;8.78;;;3.12;;
67712;SDS011;67640;55.784;49.138;2023-10-31T22:44:46;9.07;;;3.30;;
67712;SDS011;67640;55.784;49.138;2023-10-31T22:50:07;10.43;;;2.98;;
67712;SDS011;67640;55.784;49.138;2023-10-31T22:55:26;6.35;;;2.77;;
67712;SDS011;67640;55.784;49.138;2023-10-31T23:00:31;7.63;;;3.00;;
67712;SDS011;67640;55.784;49.138;2023-10-31T23:05:36;5.95;;;2.80;;
67712;SDS011;67640;55.784;49.138;2023-10-31T23:10:54;5.85;;;3.22;;
67712;SDS011;67640;55.784;49.138;2023-10-31T23:15:59;6.30;;;2.87;;
67712;SDS011;67640;55.784;49.138;2023-10-31T23:21:04;7.85;;;2.98;;
67712;SDS011;67640;55.784;49.138;2023-10-31T23:26:23;7.40;;;3.02;;
67712;SDS011;67640;55.784;49.138;2023-10-31T23:31:28;15.63;;;3.40;;
67712;SDS011;67640;55.784;49.138;2023-10-31T23:36:33;5.90;;;2.55;;
67712;SDS011;67640;55.784;49.138;2023-10-31T23:41:52;6.58;;;3.10;;
67712;SDS011;67640;55.784;49.138;2023-10-31T23:47:11;5.23;;;2.60;;
67712;SDS011;67640;55.784;49.138;2023-10-31T23:52:30;5.08;;;2.40;;
67712;SDS011;67640;55.784;49.138;2023-10-31T23:57:35;5.67;;;2.57;;
